sensor_id;sensor_type;location;lat;lon;timestamp;temperature;humidity
50556;DHT22;36508;52.512;13.450;2023-07-28T00:00:47;16.50;99.90
50556;DHT22;36508;52.512;13.450;2023-07-28T00:03:13;16.50;99.90
50556;DHT22;36508;52.512;13.450;2023-07-28T00:05:38;16.50;99.90
50556;DHT22;36508;52.512;13.450;2023-07-28T00:08:04;16.60;99.90
50556;DHT22;36508;52.512;13.450;2023-07-28T00:10:30;16.70;99.90
50556;DHT22;36508;52.512;13.450;2023-07-28T00:12:56;16.80;99.90
50556;DHT22;36508;52.512;13.450;2023-07-28T00:15:21;16.80;99.90
50556;DHT22;36508;52.512;13.450;2023-07-28T00:17:47;16.90;99.90
50556;DHT22;36508;52.512;13.450;2023-07-28T00:20:13;16.80;99.90
50556;DHT22;36508;52.512;13.450;2023-07-28T00:22:38;16.80;99.90
50556;DHT22;36508;52.512;13.450;2023-07-28T00:25:04;16.70;99.90
50556;DHT22;36508;52.512;13.450;2023-07-28T00:27:30;16.60;99.90
50556;DHT22;36508;52.512;13.450;2023-07-28T00:29:55;16.70;99.90
50556;DHT22;36508;52.512;13.450;2023-07-28T00:32:21;16.60;99.90
50556;DHT22;36508;52.512;13.450;2023-07-28T00:34:47;16.50;99.90
50556;DHT22;36508;52.512;13.450;2023-07-28T00:37:12;16.60;99.90
50556;DHT22;36508;52.512;13.450;2023-07-28T00:39:38;16.60;99.90
50556;DHT22;36508;52.512;13.450;2023-07-28T00:42:04;16.60;99.90
50556;DHT22;36508;52.512;13.450;2023-07-28T00:44:29;16.60;99.90
50556;DHT22;36508;52.512;13.450;2023-07-28T00:46:55;16.60;99.90
50556;DHT22;36508;52.512;13.450;2023-07-28T00:49:21;16.70;99.90
50556;DHT22;36508;52.512;13.450;2023-07-28T00:51:47;16.70;99.90
50556;DHT22;36508;52.512;13.450;2023-07-28T00:54:13;16.70;99.90
50556;DHT22;36508;52.512;13.450;2023-07-28T00:56:39;16.60;99.90
50556;DHT22;36508;52.512;13.450;2023-07-28T00:59:05;16.60;99.90
50556;DHT22;36508;52.512;13.450;2023-07-28T01:01:31;16.70;99.90
50556;DHT22;36508;52.512;13.450;2023-07-28T01:03:56;16.70;99.90
50556;DHT22;36508;52.512;13.450;2023-07-28T01:06:28;16.70;99.90
50556;DHT22;36508;52.512;13.450;2023-07-28T01:09:24;16.70;99.90
50556;DHT22;36508;52.512;13.450;2023-07-28T01:11:56;16.70;99.90
50556;DHT22;36508;52.512;13.450;2023-07-28T01:14:22;16.70;99.90
50556;DHT22;36508;52.512;13.450;2023-07-28T01:16:48;16.70;99.90
50556;DHT22;36508;52.512;13.450;2023-07-28T01:19:16;16.70;99.90
50556;DHT22;36508;52.512;13.450;2023-07-28T01:21:45;16.80;99.90
50556;DHT22;36508;52.512;13.450;2023-07-28T01:24:17;16.80;99.90
50556;DHT22;36508;52.512;13.450;2023-07-28T01:26:46;16.80;99.90
50556;DHT22;36508;52.512;13.450;2023-07-28T01:29:12;16.90;99.90
50556;DHT22;36508;52.512;13.450;2023-07-28T01:31:40;16.90;99.90
50556;DHT22;36508;52.512;13.450;2023-07-28T01:34:06;16.90;99.90
50556;DHT22;36508;52.512;13.450;2023-07-28T01:36:31;16.90;99.90
50556;DHT22;36508;52.512;13.450;2023-07-28T01:38:57;16.90;99.90
50556;DHT22;36508;52.512;13.450;2023-07-28T01:41:22;16.90;99.90
50556;DHT22;36508;52.512;13.450;2023-07-28T01:43:48;16.90;99.90
50556;DHT22;36508;52.512;13.450;2023-07-28T01:46:13;17.00;99.90
50556;DHT22;36508;52.512;13.450;2023-07-28T01:48:39;17.00;99.90
50556;DHT22;36508;52.512;13.450;2023-07-28T01:51:05;17.00;99.90
50556;DHT22;36508;52.512;13.450;2023-07-28T01:53:30;17.00;99.90
50556;DHT22;36508;52.512;13.450;2023-07-28T01:55:56;17.00;99.90
50556;DHT22;36508;52.512;13.450;2023-07-28T01:58:21;16.90;99.90
50556;DHT22;36508;52.512;13.450;2023-07-28T02:00:47;16.90;99.90
50556;DHT22;36508;52.512;13.450;2023-07-28T02:03:12;16.90;99.90
50556;DHT22;36508;52.512;13.450;2023-07-28T02:05:38;16.90;99.90
50556;DHT22;36508;52.512;13.450;2023-07-28T02:08:04;16.90;99.90
50556;DHT22;36508;52.512;13.450;2023-07-28T02:10:29;16.90;99.90
50556;DHT22;36508;52.512;13.450;2023-07-28T02:12:55;17.00;99.90
50556;DHT22;36508;52.512;13.450;2023-07-28T02:15:21;17.00;99.90
50556;DHT22;36508;52.512;13.450;2023-07-28T02:17:46;16.90;99.90
50556;DHT22;36508;52.512;13.450;2023-07-28T02:20:12;16.90;99.90
50556;DHT22;36508;52.512;13.450;2023-07-28T02:22:42;17.00;99.90
50556;DHT22;36508;52.512;13.450;2023-07-28T02:25:08;17.00;99.90
50556;DHT22;36508;52.512;13.450;2023-07-28T02:27:33;17.00;99.90
50556;DHT22;36508;52.512;13.450;2023-07-28T02:29:59;17.00;99.90
50556;DHT22;36508;52.512;13.450;2023-07-28T02:32:28;17.00;99.90
50556;DHT22;36508;52.512;13.450;2023-07-28T02:34:54;17.00;99.90
50556;DHT22;36508;52.512;13.450;2023-07-28T02:37:20;17.00;99.90
50556;DHT22;36508;52.512;13.450;2023-07-28T02:39:45;17.00;99.90
50556;DHT22;36508;52.512;13.450;2023-07-28T02:42:12;17.10;99.90
50556;DHT22;36508;52.512;13.450;2023-07-28T02:44:38;17.10;99.90
50556;DHT22;36508;52.512;13.450;2023-07-28T02:47:04;17.10;99.90
50556;DHT22;36508;52.512;13.450;2023-07-28T02:49:32;17.10;99.90
50556;DHT22;36508;52.512;13.450;2023-07-28T02:51:58;17.20;99.90
50556;DHT22;36508;52.512;13.450;2023-07-28T02:54:24;17.10;99.90
50556;DHT22;36508;52.512;13.450;2023-07-28T02:56:50;17.20;99.90
50556;DHT22;36508;52.512;13.450;2023-07-28T02:59:16;17.20;99.90
50556;DHT22;36508;52.512;13.450;2023-07-28T03:01:42;17.20;99.90
50556;DHT22;36508;52.512;13.450;2023-07-28T03:04:07;17.20;99.90
50556;DHT22;36508;52.512;13.450;2023-07-28T03:09:01;17.20;99.90
50556;DHT22;36508;52.512;13.450;2023-07-28T03:11:27;17.20;99.90
50556;DHT22;36508;52.512;13.450;2023-07-28T03:13:53;17.30;99.90
50556;DHT22;36508;52.512;13.450;2023-07-28T03:16:19;17.20;99.90
50556;DHT22;36508;52.512;13.450;2023-07-28T03:18:44;17.20;99.90
50556;DHT22;36508;52.512;13.450;2023-07-28T03:21:10;17.30;99.90
50556;DHT22;36508;52.512;13.450;2023-07-28T03:23:35;17.30;99.90
50556;DHT22;36508;52.512;13.450;2023-07-28T03:26:01;17.30;99.90
50556;DHT22;36508;52.512;13.450;2023-07-28T03:28:27;17.30;99.90
50556;DHT22;36508;52.512;13.450;2023-07-28T03:30:52;17.30;99.90
50556;DHT22;36508;52.512;13.450;2023-07-28T03:33:18;17.30;99.90
50556;DHT22;36508;52.512;13.450;2023-07-28T03:38:20;17.30;99.90
50556;DHT22;36508;52.512;13.450;2023-07-28T03:40:46;17.30;99.90
50556;DHT22;36508;52.512;13.450;2023-07-28T03:43:12;17.30;99.90
50556;DHT22;36508;52.512;13.450;2023-07-28T03:45:37;17.30;99.90
50556;DHT22;36508;52.512;13.450;2023-07-28T03:48:03;17.40;99.90
50556;DHT22;36508;52.512;13.450;2023-07-28T03:50:28;17.30;99.90
50556;DHT22;36508;52.512;13.450;2023-07-28T03:52:54;17.40;99.90
50556;DHT22;36508;52.512;13.450;2023-07-28T03:55:19;17.40;99.90
50556;DHT22;36508;52.512;13.450;2023-07-28T03:57:45;17.30;99.90
50556;DHT22;36508;52.512;13.450;2023-07-28T04:00:11;17.40;99.90
50556;DHT22;36508;52.512;13.450;2023-07-28T04:02:37;17.40;99.90
50556;DHT22;36508;52.512;13.450;2023-07-28T04:05:02;17.40;99.90
50556;DHT22;36508;52.512;13.450;2023-07-28T04:07:28;17.40;99.90
50556;DHT22;36508;52.512;13.450;2023-07-28T04:09:53;17.40;99.90
50556;DHT22;36508;52.512;13.450;2023-07-28T04:12:19;17.40;99.90
50556;DHT22;36508;52.512;13.450;2023-07-28T04:14:44;17.50;99.90
50556;DHT22;36508;52.512;13.450;2023-07-28T04:17:10;17.50;99.90
50556;DHT22;36508;52.512;13.450;2023-07-28T04:19:37;17.40;99.90
50556;DHT22;36508;52.512;13.450;2023-07-28T04:22:02;17.40;99.90
50556;DHT22;36508;52.512;13.450;2023-07-28T04:24:28;17.50;99.90
50556;DHT22;36508;52.512;13.450;2023-07-28T04:26:53;17.50;99.90
50556;DHT22;36508;52.512;13.450;2023-07-28T04:29:20;17.50;99.90
50556;DHT22;36508;52.512;13.450;2023-07-28T04:31:46;17.50;99.90
50556;DHT22;36508;52.512;13.450;2023-07-28T04:34:11;17.50;99.90
50556;DHT22;36508;52.512;13.450;2023-07-28T04:36:37;17.50;99.90
50556;DHT22;36508;52.512;13.450;2023-07-28T04:39:02;17.50;99.90
50556;DHT22;36508;52.512;13.450;2023-07-28T04:41:28;17.60;99.90
50556;DHT22;36508;52.512;13.450;2023-07-28T04:43:54;17.60;99.90
50556;DHT22;36508;52.512;13.450;2023-07-28T04:46:19;17.70;99.90
50556;DHT22;36508;52.512;13.450;2023-07-28T04:48:46;17.60;99.90
50556;DHT22;36508;52.512;13.450;2023-07-28T04:51:11;17.70;99.90
50556;DHT22;36508;52.512;13.450;2023-07-28T04:53:37;17.70;99.90
50556;DHT22;36508;52.512;13.450;2023-07-28T04:56:02;17.70;99.90
50556;DHT22;36508;52.512;13.450;2023-07-28T04:58:29;17.70;99.90
50556;DHT22;36508;52.512;13.450;2023-07-28T05:00:54;17.70;99.90
50556;DHT22;36508;52.512;13.450;2023-07-28T05:03:20;17.60;99.90
50556;DHT22;36508;52.512;13.450;2023-07-28T05:05:45;17.70;99.90
50556;DHT22;36508;52.512;13.450;2023-07-28T05:08:11;17.70;99.90
50556;DHT22;36508;52.512;13.450;2023-07-28T05:10:37;17.70;99.90
50556;DHT22;36508;52.512;13.450;2023-07-28T05:13:02;17.70;99.90
50556;DHT22;36508;52.512;13.450;2023-07-28T05:15:29;17.70;99.90
50556;DHT22;36508;52.512;13.450;2023-07-28T05:17:55;17.70;99.90
50556;DHT22;36508;52.512;13.450;2023-07-28T05:20:21;17.70;99.90
50556;DHT22;36508;52.512;13.450;2023-07-28T05:22:47;17.70;99.90
50556;DHT22;36508;52.512;13.450;2023-07-28T05:25:12;17.80;99.90
50556;DHT22;36508;52.512;13.450;2023-07-28T05:27:38;17.80;99.90
50556;DHT22;36508;52.512;13.450;2023-07-28T05:30:04;17.80;99.90
50556;DHT22;36508;52.512;13.450;2023-07-28T05:32:30;17.90;99.90
50556;DHT22;36508;52.512;13.450;2023-07-28T05:34:55;17.80;99.90
50556;DHT22;36508;52.512;13.450;2023-07-28T05:37:21;17.80;99.90
50556;DHT22;36508;52.512;13.450;2023-07-28T05:39:46;17.80;99.90
50556;DHT22;36508;52.512;13.450;2023-07-28T05:42:12;17.90;99.90
50556;DHT22;36508;52.512;13.450;2023-07-28T05:44:38;17.90;99.90
50556;DHT22;36508;52.512;13.450;2023-07-28T05:47:03;17.90;99.90
50556;DHT22;36508;52.512;13.450;2023-07-28T05:49:30;17.90;99.90
50556;DHT22;36508;52.512;13.450;2023-07-28T05:51:55;18.00;99.90
50556;DHT22;36508;52.512;13.450;2023-07-28T05:54:21;18.00;99.90
50556;DHT22;36508;52.512;13.450;2023-07-28T05:56:47;18.00;99.90
50556;DHT22;36508;52.512;13.450;2023-07-28T05:59:12;18.00;99.90
50556;DHT22;36508;52.512;13.450;2023-07-28T06:01:38;17.90;99.90
50556;DHT22;36508;52.512;13.450;2023-07-28T06:04:03;17.90;99.90
50556;DHT22;36508;52.512;13.450;2023-07-28T06:06:29;17.80;99.90
50556;DHT22;36508;52.512;13.450;2023-07-28T06:08:55;17.80;99.90
50556;DHT22;36508;52.512;13.450;2023-07-28T06:11:21;17.80;99.90
50556;DHT22;36508;52.512;13.450;2023-07-28T06:13:47;17.80;99.90
50556;DHT22;36508;52.512;13.450;2023-07-28T06:16:13;17.90;99.90
50556;DHT22;36508;52.512;13.450;2023-07-28T06:18:39;17.80;99.90
50556;DHT22;36508;52.512;13.450;2023-07-28T06:21:04;17.80;99.90
50556;DHT22;36508;52.512;13.450;2023-07-28T06:23:30;17.70;99.90
50556;DHT22;36508;52.512;13.450;2023-07-28T06:25:56;17.70;99.90
50556;DHT22;36508;52.512;13.450;2023-07-28T06:28:21;17.70;99.90
50556;DHT22;36508;52.512;13.450;2023-07-28T06:30:47;17.70;99.90
50556;DHT22;36508;52.512;13.450;2023-07-28T06:33:13;17.70;99.90
50556;DHT22;36508;52.512;13.450;2023-07-28T06:35:38;17.70;99.90
50556;DHT22;36508;52.512;13.450;2023-07-28T06:38:04;17.80;99.90
50556;DHT22;36508;52.512;13.450;2023-07-28T06:40:30;17.80;99.90
50556;DHT22;36508;52.512;13.450;2023-07-28T06:42:56;17.80;99.90
50556;DHT22;36508;52.512;13.450;2023-07-28T06:45:21;17.90;99.90
50556;DHT22;36508;52.512;13.450;2023-07-28T06:50:20;18.00;99.90
50556;DHT22;36508;52.512;13.450;2023-07-28T06:52:46;18.00;99.90
50556;DHT22;36508;52.512;13.450;2023-07-28T06:55:16;18.00;99.90
50556;DHT22;36508;52.512;13.450;2023-07-28T06:57:42;18.00;99.90
50556;DHT22;36508;52.512;13.450;2023-07-28T07:00:08;18.10;99.90
50556;DHT22;36508;52.512;13.450;2023-07-28T07:02:36;18.10;99.90
50556;DHT22;36508;52.512;13.450;2023-07-28T07:05:02;18.20;99.90
50556;DHT22;36508;52.512;13.450;2023-07-28T07:07:28;18.30;99.90
50556;DHT22;36508;52.512;13.450;2023-07-28T07:09:53;18.40;99.90
50556;DHT22;36508;52.512;13.450;2023-07-28T07:12:19;18.50;99.90
50556;DHT22;36508;52.512;13.450;2023-07-28T07:14:46;18.60;99.90
50556;DHT22;36508;52.512;13.450;2023-07-28T07:17:12;18.70;99.90
50556;DHT22;36508;52.512;13.450;2023-07-28T07:19:37;18.70;99.90
50556;DHT22;36508;52.512;13.450;2023-07-28T07:22:03;18.80;99.90
50556;DHT22;36508;52.512;13.450;2023-07-28T07:24:29;18.80;99.90
50556;DHT22;36508;52.512;13.450;2023-07-28T07:26:54;18.80;99.90
50556;DHT22;36508;52.512;13.450;2023-07-28T07:29:20;18.80;99.90
50556;DHT22;36508;52.512;13.450;2023-07-28T07:31:46;18.80;99.90
50556;DHT22;36508;52.512;13.450;2023-07-28T07:34:11;18.90;99.90
50556;DHT22;36508;52.512;13.450;2023-07-28T07:36:37;19.00;99.90
50556;DHT22;36508;52.512;13.450;2023-07-28T07:39:02;19.00;99.90
50556;DHT22;36508;52.512;13.450;2023-07-28T07:41:30;19.10;99.90
50556;DHT22;36508;52.512;13.450;2023-07-28T07:43:56;19.10;99.90
50556;DHT22;36508;52.512;13.450;2023-07-28T07:46:22;19.20;99.90
50556;DHT22;36508;52.512;13.450;2023-07-28T07:48:48;19.30;99.90
50556;DHT22;36508;52.512;13.450;2023-07-28T07:51:14;19.40;99.90
50556;DHT22;36508;52.512;13.450;2023-07-28T07:53:39;19.50;99.90
50556;DHT22;36508;52.512;13.450;2023-07-28T07:56:06;19.50;99.90
50556;DHT22;36508;52.512;13.450;2023-07-28T07:58:32;19.50;99.90
50556;DHT22;36508;52.512;13.450;2023-07-28T08:00:58;19.60;99.90
50556;DHT22;36508;52.512;13.450;2023-07-28T08:03:24;19.70;99.90
50556;DHT22;36508;52.512;13.450;2023-07-28T08:05:53;19.70;99.90
50556;DHT22;36508;52.512;13.450;2023-07-28T08:08:19;19.70;99.90
50556;DHT22;36508;52.512;13.450;2023-07-28T08:10:46;19.80;99.90
50556;DHT22;36508;52.512;13.450;2023-07-28T08:13:12;19.90;99.90
50556;DHT22;36508;52.512;13.450;2023-07-28T08:15:38;20.00;99.90
50556;DHT22;36508;52.512;13.450;2023-07-28T08:18:04;20.10;99.90
50556;DHT22;36508;52.512;13.450;2023-07-28T08:20:29;20.20;99.90
50556;DHT22;36508;52.512;13.450;2023-07-28T08:22:55;20.20;99.90
50556;DHT22;36508;52.512;13.450;2023-07-28T08:25:21;20.20;99.90
50556;DHT22;36508;52.512;13.450;2023-07-28T08:27:48;20.30;99.90
50556;DHT22;36508;52.512;13.450;2023-07-28T08:30:13;20.30;99.90
50556;DHT22;36508;52.512;13.450;2023-07-28T08:32:43;20.30;99.90
50556;DHT22;36508;52.512;13.450;2023-07-28T08:35:09;20.20;99.90
50556;DHT22;36508;52.512;13.450;2023-07-28T08:37:35;20.10;99.90
50556;DHT22;36508;52.512;13.450;2023-07-28T08:40:01;20.00;99.90
50556;DHT22;36508;52.512;13.450;2023-07-28T08:42:29;19.90;99.90
50556;DHT22;36508;52.512;13.450;2023-07-28T08:44:55;20.00;99.90
50556;DHT22;36508;52.512;13.450;2023-07-28T08:47:21;20.00;99.90
50556;DHT22;36508;52.512;13.450;2023-07-28T08:49:47;20.00;99.90
50556;DHT22;36508;52.512;13.450;2023-07-28T08:52:15;20.10;99.90
50556;DHT22;36508;52.512;13.450;2023-07-28T08:54:41;20.20;99.90
50556;DHT22;36508;52.512;13.450;2023-07-28T08:57:07;20.30;99.90
50556;DHT22;36508;52.512;13.450;2023-07-28T08:59:34;20.50;99.90
50556;DHT22;36508;52.512;13.450;2023-07-28T09:02:01;20.50;99.90
50556;DHT22;36508;52.512;13.450;2023-07-28T09:04:27;20.60;99.90
50556;DHT22;36508;52.512;13.450;2023-07-28T09:06:53;20.50;99.90
50556;DHT22;36508;52.512;13.450;2023-07-28T09:09:21;20.40;99.90
50556;DHT22;36508;52.512;13.450;2023-07-28T09:11:51;20.30;99.90
50556;DHT22;36508;52.512;13.450;2023-07-28T09:14:18;20.40;99.90
50556;DHT22;36508;52.512;13.450;2023-07-28T09:16:45;20.50;99.90
50556;DHT22;36508;52.512;13.450;2023-07-28T09:19:11;20.40;99.90
50556;DHT22;36508;52.512;13.450;2023-07-28T09:21:43;20.40;99.90
50556;DHT22;36508;52.512;13.450;2023-07-28T09:24:12;20.50;99.90
50556;DHT22;36508;52.512;13.450;2023-07-28T09:26:46;20.20;99.90
50556;DHT22;36508;52.512;13.450;2023-07-28T09:29:20;19.90;99.90
50556;DHT22;36508;52.512;13.450;2023-07-28T09:31:47;19.80;99.90
50556;DHT22;36508;52.512;13.450;2023-07-28T09:34:22;19.80;99.90
50556;DHT22;36508;52.512;13.450;2023-07-28T09:36:49;19.90;99.90
50556;DHT22;36508;52.512;13.450;2023-07-28T09:39:14;20.10;99.90
50556;DHT22;36508;52.512;13.450;2023-07-28T09:41:40;20.30;99.90
50556;DHT22;36508;52.512;13.450;2023-07-28T09:44:06;20.30;99.90
50556;DHT22;36508;52.512;13.450;2023-07-28T09:46:34;20.30;99.90
50556;DHT22;36508;52.512;13.450;2023-07-28T09:49:10;20.50;99.90
50556;DHT22;36508;52.512;13.450;2023-07-28T09:51:41;20.70;99.90
50556;DHT22;36508;52.512;13.450;2023-07-28T09:54:12;20.80;99.90
50556;DHT22;36508;52.512;13.450;2023-07-28T09:56:41;20.80;99.90
50556;DHT22;36508;52.512;13.450;2023-07-28T09:59:11;20.80;99.90
50556;DHT22;36508;52.512;13.450;2023-07-28T10:01:39;20.90;99.90
50556;DHT22;36508;52.512;13.450;2023-07-28T10:04:05;21.20;99.90
50556;DHT22;36508;52.512;13.450;2023-07-28T10:06:32;21.00;99.90
50556;DHT22;36508;52.512;13.450;2023-07-28T10:08:59;20.90;99.90
50556;DHT22;36508;52.512;13.450;2023-07-28T10:11:25;20.80;99.90
50556;DHT22;36508;52.512;13.450;2023-07-28T10:13:54;20.70;99.90
50556;DHT22;36508;52.512;13.450;2023-07-28T10:16:20;20.50;99.90
50556;DHT22;36508;52.512;13.450;2023-07-28T10:18:54;20.20;99.90
50556;DHT22;36508;52.512;13.450;2023-07-28T10:21:20;20.10;99.90
50556;DHT22;36508;52.512;13.450;2023-07-28T10:23:57;20.00;99.90
50556;DHT22;36508;52.512;13.450;2023-07-28T10:26:38;20.10;99.90
50556;DHT22;36508;52.512;13.450;2023-07-28T10:29:12;20.30;99.90
50556;DHT22;36508;52.512;13.450;2023-07-28T10:31:58;20.50;99.90
50556;DHT22;36508;52.512;13.450;2023-07-28T10:34:24;20.60;99.90
50556;DHT22;36508;52.512;13.450;2023-07-28T10:36:59;20.70;99.90
50556;DHT22;36508;52.512;13.450;2023-07-28T10:39:25;20.70;99.90
50556;DHT22;36508;52.512;13.450;2023-07-28T10:42:08;20.60;99.90
50556;DHT22;36508;52.512;13.450;2023-07-28T10:44:34;20.50;99.90
50556;DHT22;36508;52.512;13.450;2023-07-28T10:47:01;20.00;99.90
50556;DHT22;36508;52.512;13.450;2023-07-28T10:49:27;19.80;99.90
50556;DHT22;36508;52.512;13.450;2023-07-28T10:51:53;20.30;99.90
50556;DHT22;36508;52.512;13.450;2023-07-28T10:54:19;20.80;99.90
50556;DHT22;36508;52.512;13.450;2023-07-28T10:56:48;21.50;99.90
50556;DHT22;36508;52.512;13.450;2023-07-28T10:59:14;21.20;99.90
50556;DHT22;36508;52.512;13.450;2023-07-28T11:01:41;20.80;99.90
50556;DHT22;36508;52.512;13.450;2023-07-28T11:04:09;20.20;99.90
50556;DHT22;36508;52.512;13.450;2023-07-28T11:06:35;19.00;99.90
50556;DHT22;36508;52.512;13.450;2023-07-28T11:09:01;18.60;99.90
50556;DHT22;36508;52.512;13.450;2023-07-28T11:11:27;18.40;99.90
50556;DHT22;36508;52.512;13.450;2023-07-28T11:13:53;18.10;99.90
50556;DHT22;36508;52.512;13.450;2023-07-28T11:16:20;18.00;99.90
50556;DHT22;36508;52.512;13.450;2023-07-28T11:18:46;18.10;99.90
50556;DHT22;36508;52.512;13.450;2023-07-28T11:21:12;18.00;99.90
50556;DHT22;36508;52.512;13.450;2023-07-28T11:23:37;18.10;99.90
50556;DHT22;36508;52.512;13.450;2023-07-28T11:26:05;18.10;99.90
50556;DHT22;36508;52.512;13.450;2023-07-28T11:28:32;18.10;99.90
50556;DHT22;36508;52.512;13.450;2023-07-28T11:30:59;18.10;99.90
50556;DHT22;36508;52.512;13.450;2023-07-28T11:33:25;18.10;99.90
50556;DHT22;36508;52.512;13.450;2023-07-28T11:35:50;18.30;99.90
50556;DHT22;36508;52.512;13.450;2023-07-28T11:38:16;18.30;99.90
50556;DHT22;36508;52.512;13.450;2023-07-28T11:40:42;18.20;99.90
50556;DHT22;36508;52.512;13.450;2023-07-28T11:43:08;18.10;99.90
50556;DHT22;36508;52.512;13.450;2023-07-28T11:45:34;18.20;99.90
50556;DHT22;36508;52.512;13.450;2023-07-28T11:48:04;18.20;99.90
50556;DHT22;36508;52.512;13.450;2023-07-28T11:50:36;18.30;99.90
50556;DHT22;36508;52.512;13.450;2023-07-28T11:53:02;18.40;99.90
50556;DHT22;36508;52.512;13.450;2023-07-28T11:55:29;18.50;99.90
50556;DHT22;36508;52.512;13.450;2023-07-28T11:57:55;18.60;99.90
50556;DHT22;36508;52.512;13.450;2023-07-28T12:00:31;18.60;99.90
50556;DHT22;36508;52.512;13.450;2023-07-28T12:03:12;18.80;99.90
50556;DHT22;36508;52.512;13.450;2023-07-28T12:05:39;19.00;99.90
50556;DHT22;36508;52.512;13.450;2023-07-28T12:08:04;19.20;99.90
50556;DHT22;36508;52.512;13.450;2023-07-28T12:10:31;19.20;99.90
50556;DHT22;36508;52.512;13.450;2023-07-28T12:12:57;19.30;99.90
50556;DHT22;36508;52.512;13.450;2023-07-28T12:15:29;19.30;99.90
50556;DHT22;36508;52.512;13.450;2023-07-28T12:18:07;19.50;99.90
50556;DHT22;36508;52.512;13.450;2023-07-28T12:20:42;19.30;99.90
50556;DHT22;36508;52.512;13.450;2023-07-28T12:23:13;19.50;99.90
50556;DHT22;36508;52.512;13.450;2023-07-28T12:25:39;19.50;99.90
50556;DHT22;36508;52.512;13.450;2023-07-28T12:28:05;19.20;99.90
50556;DHT22;36508;52.512;13.450;2023-07-28T12:30:31;19.20;99.90
50556;DHT22;36508;52.512;13.450;2023-07-28T12:32:57;19.10;99.90
50556;DHT22;36508;52.512;13.450;2023-07-28T12:35:23;19.10;99.90
50556;DHT22;36508;52.512;13.450;2023-07-28T12:37:52;19.10;99.90
50556;DHT22;36508;52.512;13.450;2023-07-28T12:40:18;19.00;99.90
50556;DHT22;36508;52.512;13.450;2023-07-28T12:42:45;19.00;99.90
50556;DHT22;36508;52.512;13.450;2023-07-28T12:45:12;18.90;99.90
50556;DHT22;36508;52.512;13.450;2023-07-28T12:47:38;19.00;99.90
50556;DHT22;36508;52.512;13.450;2023-07-28T12:50:04;19.20;99.90
50556;DHT22;36508;52.512;13.450;2023-07-28T12:52:32;19.20;99.90
50556;DHT22;36508;52.512;13.450;2023-07-28T12:54:57;19.40;99.90
50556;DHT22;36508;52.512;13.450;2023-07-28T12:57:24;19.40;99.90
50556;DHT22;36508;52.512;13.450;2023-07-28T12:59:49;19.20;99.90
50556;DHT22;36508;52.512;13.450;2023-07-28T13:02:17;19.00;99.90
50556;DHT22;36508;52.512;13.450;2023-07-28T13:04:42;18.90;99.90
50556;DHT22;36508;52.512;13.450;2023-07-28T13:07:08;19.10;99.90
50556;DHT22;36508;52.512;13.450;2023-07-28T13:09:33;19.30;99.90
50556;DHT22;36508;52.512;13.450;2023-07-28T13:11:59;19.40;99.90
50556;DHT22;36508;52.512;13.450;2023-07-28T13:14:25;19.50;99.90
50556;DHT22;36508;52.512;13.450;2023-07-28T13:19:30;19.80;99.90
50556;DHT22;36508;52.512;13.450;2023-07-28T13:21:56;19.80;99.90
50556;DHT22;36508;52.512;13.450;2023-07-28T13:24:21;19.70;99.90
50556;DHT22;36508;52.512;13.450;2023-07-28T13:26:47;19.60;99.90
50556;DHT22;36508;52.512;13.450;2023-07-28T13:29:12;19.60;99.90
50556;DHT22;36508;52.512;13.450;2023-07-28T13:31:38;19.60;99.90
50556;DHT22;36508;52.512;13.450;2023-07-28T13:34:03;19.60;99.90
50556;DHT22;36508;52.512;13.450;2023-07-28T13:36:29;19.70;99.90
50556;DHT22;36508;52.512;13.450;2023-07-28T13:38:54;19.90;99.90
50556;DHT22;36508;52.512;13.450;2023-07-28T13:41:20;20.00;99.90
50556;DHT22;36508;52.512;13.450;2023-07-28T13:43:45;19.90;99.90
50556;DHT22;36508;52.512;13.450;2023-07-28T13:46:11;19.90;99.90
50556;DHT22;36508;52.512;13.450;2023-07-28T13:48:37;20.00;99.90
50556;DHT22;36508;52.512;13.450;2023-07-28T13:51:04;20.00;99.90
50556;DHT22;36508;52.512;13.450;2023-07-28T13:53:30;20.20;99.90
50556;DHT22;36508;52.512;13.450;2023-07-28T13:55:55;20.50;99.90
50556;DHT22;36508;52.512;13.450;2023-07-28T13:58:21;20.70;99.90
50556;DHT22;36508;52.512;13.450;2023-07-28T14:00:47;20.80;99.90
50556;DHT22;36508;52.512;13.450;2023-07-28T14:03:12;20.80;99.90
50556;DHT22;36508;52.512;13.450;2023-07-28T14:05:39;20.90;99.90
50556;DHT22;36508;52.512;13.450;2023-07-28T14:08:05;21.10;99.90
50556;DHT22;36508;52.512;13.450;2023-07-28T14:10:30;21.30;99.90
50556;DHT22;36508;52.512;13.450;2023-07-28T14:12:58;21.40;99.90
50556;DHT22;36508;52.512;13.450;2023-07-28T14:15:23;21.30;99.90
50556;DHT22;36508;52.512;13.450;2023-07-28T14:17:49;21.20;99.90
50556;DHT22;36508;52.512;13.450;2023-07-28T14:20:15;21.20;99.90
50556;DHT22;36508;52.512;13.450;2023-07-28T14:22:40;21.20;99.90
50556;DHT22;36508;52.512;13.450;2023-07-28T14:25:06;21.30;99.90
50556;DHT22;36508;52.512;13.450;2023-07-28T14:27:32;21.40;99.90
50556;DHT22;36508;52.512;13.450;2023-07-28T14:29:57;21.50;99.90
50556;DHT22;36508;52.512;13.450;2023-07-28T14:32:23;21.80;99.90
50556;DHT22;36508;52.512;13.450;2023-07-28T14:34:48;22.10;99.90
50556;DHT22;36508;52.512;13.450;2023-07-28T14:37:14;22.20;99.90
50556;DHT22;36508;52.512;13.450;2023-07-28T14:39:39;22.20;99.90
50556;DHT22;36508;52.512;13.450;2023-07-28T14:42:05;22.30;99.90
50556;DHT22;36508;52.512;13.450;2023-07-28T14:44:31;22.40;99.90
50556;DHT22;36508;52.512;13.450;2023-07-28T14:46:56;22.30;99.90
50556;DHT22;36508;52.512;13.450;2023-07-28T14:49:23;22.30;99.90
50556;DHT22;36508;52.512;13.450;2023-07-28T14:51:48;22.20;99.90
50556;DHT22;36508;52.512;13.450;2023-07-28T14:54:14;22.20;99.90
50556;DHT22;36508;52.512;13.450;2023-07-28T14:56:39;22.40;99.90
50556;DHT22;36508;52.512;13.450;2023-07-28T14:59:05;22.60;99.90
50556;DHT22;36508;52.512;13.450;2023-07-28T15:01:31;22.60;99.90
50556;DHT22;36508;52.512;13.450;2023-07-28T15:03:58;22.70;99.90
50556;DHT22;36508;52.512;13.450;2023-07-28T15:06:24;22.80;99.90
50556;DHT22;36508;52.512;13.450;2023-07-28T15:08:50;22.90;99.90
50556;DHT22;36508;52.512;13.450;2023-07-28T15:11:16;22.90;99.90
50556;DHT22;36508;52.512;13.450;2023-07-28T15:13:43;22.80;99.90
50556;DHT22;36508;52.512;13.450;2023-07-28T15:16:09;22.70;99.90
50556;DHT22;36508;52.512;13.450;2023-07-28T15:18:35;22.70;99.90
50556;DHT22;36508;52.512;13.450;2023-07-28T15:21:01;22.80;99.90